createdAt,value
2022-09-06T00:01:12.492Z,64.61
2022-09-06T00:03:40.287Z,64.97
2022-09-06T00:06:10.242Z,65.42
2022-09-06T00:08:39.457Z,65.17
2022-09-06T00:11:07.523Z,65.59
2022-09-06T00:13:35.491Z,64.76
2022-09-06T00:16:08.290Z,64.42
2022-09-06T00:18:36.097Z,64.92
2022-09-06T00:21:03.858Z,65.91
2022-09-06T00:23:31.506Z,66.53
2022-09-06T00:26:06.729Z,66.36
2022-09-06T00:28:34.393Z,67.12
2022-09-06T00:31:09.733Z,67.27
2022-09-06T00:33:37.726Z,67.83
2022-09-06T00:36:05.553Z,67.92
2022-09-06T00:38:33.370Z,68.33
2022-09-06T00:41:00.990Z,68.06
2022-09-06T00:43:29.978Z,67.95
2022-09-06T00:45:58.187Z,68.22
2022-09-06T00:48:25.984Z,68.69
2022-09-06T00:50:56.277Z,68.53
2022-09-06T00:53:24.524Z,68.55
2022-09-06T00:55:52.142Z,68.92
2022-09-06T00:58:19.909Z,69.13
2022-09-06T01:00:48.948Z,69.13
2022-09-06T01:03:16.711Z,69.70
2022-09-06T01:05:54.279Z,71.33
2022-09-06T01:08:29.294Z,72.30
2022-09-06T01:11:13.138Z,71.05
2022-09-06T01:13:50.321Z,72.52
2022-09-06T01:16:26.795Z,72.52
2022-09-06T01:19:04.158Z,72.47
2022-09-06T01:21:48.206Z,74.35
2022-09-06T01:24:38.942Z,74.24
2022-09-06T01:27:36.046Z,75.08
2022-09-06T01:30:07.597Z,74.25
2022-09-06T01:32:42.352Z,76.49
2022-09-06T01:35:18.582Z,77.84
2022-09-06T01:37:46.381Z,82.50
2022-09-06T01:40:13.992Z,86.70
2022-09-06T01:42:42.689Z,89.08
2022-09-06T01:45:14.093Z,91.52
2022-09-06T01:47:49.541Z,94.10
2022-09-06T01:51:04.993Z,94.94
2022-09-06T01:53:46.091Z,96.66
2022-09-06T01:56:23.326Z,97.61
2022-09-06T01:59:04.282Z,99.19
2022-09-06T02:01:37.164Z,100.00
2022-09-06T02:04:10.068Z,100.00
2022-09-06T02:06:41.011Z,100.00
2022-09-06T02:09:11.120Z,100.00
2022-09-06T02:11:41.554Z,100.00
2022-09-06T02:14:11.403Z,100.00
2022-09-06T02:16:42.636Z,100.00
2022-09-06T02:19:25.993Z,100.00
2022-09-06T02:25:55.029Z,100.00
2022-09-06T02:28:27.309Z,99.17
2022-09-06T02:31:33.077Z,97.91
2022-09-06T02:34:10.998Z,96.88
2022-09-06T02:38:20.467Z,97.39
2022-09-06T02:39:50.318Z,97.47
2022-09-06T02:42:27.769Z,96.36
2022-09-06T02:48:11.633Z,95.51
2022-09-06T02:50:57.060Z,96.16
2022-09-06T02:53:24.639Z,98.80
2022-09-06T02:55:52.274Z,95.00
2022-09-06T02:58:19.880Z,93.99
2022-09-06T03:00:47.989Z,96.57
2022-09-06T03:03:16.107Z,96.98
2022-09-06T03:05:48.097Z,96.45
2022-09-06T03:08:15.747Z,97.82
2022-09-06T03:10:43.448Z,96.39
2022-09-06T03:13:11.594Z,94.75
2022-09-06T03:15:39.256Z,92.63
2022-09-06T03:18:07.019Z,92.05
2022-09-06T03:20:37.150Z,92.29
2022-09-06T03:23:06.485Z,97.09
2022-09-06T03:25:34.139Z,98.49
2022-09-06T03:28:01.860Z,98.54
2022-09-06T03:30:29.543Z,100.00
2022-09-06T03:33:00.797Z,100.00
2022-09-06T03:35:30.133Z,100.00
2022-09-06T03:37:57.869Z,100.00
2022-09-06T03:40:26.899Z,100.00
2022-09-06T03:42:54.530Z,100.00
2022-09-06T03:45:22.312Z,100.00
2022-09-06T03:47:49.936Z,100.00
2022-09-06T03:50:17.649Z,100.00
2022-09-06T03:52:45.252Z,100.00
2022-09-06T03:55:12.925Z,100.00
2022-09-06T03:57:41.905Z,100.00
2022-09-06T04:00:10.858Z,100.00
2022-09-06T04:02:38.532Z,100.00
2022-09-06T04:05:06.874Z,100.00
2022-09-06T04:07:34.533Z,100.00
2022-09-06T04:10:02.135Z,100.00
2022-09-06T04:12:29.952Z,100.00
2022-09-06T04:14:58.986Z,100.00
2022-09-06T04:17:26.680Z,100.00
2022-09-06T04:19:54.339Z,100.00
2022-09-06T04:22:21.979Z,100.00
2022-09-06T04:24:49.611Z,100.00
2022-09-06T04:27:17.288Z,100.00
2022-09-06T04:29:45.153Z,100.00
2022-09-06T04:32:14.285Z,100.00
2022-09-06T04:34:42.151Z,100.00
2022-09-06T04:37:10.322Z,100.00
2022-09-06T04:39:40.101Z,100.00
2022-09-06T04:42:08.628Z,100.00
2022-09-06T04:44:36.625Z,100.00
2022-09-06T04:47:09.470Z,100.00
2022-09-06T04:49:41.592Z,100.00
2022-09-06T04:52:10.122Z,100.00
2022-09-06T04:54:38.401Z,100.00
2022-09-06T04:57:06.937Z,100.00
2022-09-06T04:59:35.823Z,100.00
2022-09-06T05:02:04.299Z,100.00
2022-09-06T05:04:32.644Z,100.00
2022-09-06T05:07:07.103Z,100.00
2022-09-06T05:09:35.201Z,100.00
2022-09-06T05:12:03.199Z,100.00
2022-09-06T05:14:30.998Z,100.00
2022-09-06T05:16:58.829Z,100.00
2022-09-06T05:19:26.619Z,100.00
2022-09-06T05:21:54.227Z,100.00
2022-09-06T05:24:23.209Z,100.00
2022-09-06T05:26:50.836Z,100.00
2022-09-06T05:29:18.482Z,100.00
2022-09-06T05:31:46.174Z,100.00
2022-09-06T05:34:14.996Z,100.00
2022-09-06T05:36:42.679Z,100.00
2022-09-06T05:39:10.355Z,100.00
2022-09-06T05:41:39.339Z,100.00
2022-09-06T05:44:07.042Z,100.00
2022-09-06T05:46:34.641Z,100.00
2022-09-06T05:49:07.776Z,100.00
2022-09-06T05:51:35.398Z,100.00
2022-09-06T05:54:03.052Z,100.00
2022-09-06T05:56:30.736Z,100.00
2022-09-06T05:58:59.733Z,100.00
2022-09-06T06:01:28.642Z,100.00
2022-09-06T06:03:58.789Z,100.00
2022-09-06T06:06:27.623Z,100.00
2022-09-06T06:08:55.331Z,100.00
2022-09-06T06:11:22.996Z,100.00
2022-09-06T06:13:50.826Z,100.00
2022-09-06T06:16:22.033Z,100.00
2022-09-06T06:18:52.341Z,100.00
2022-09-06T06:21:22.530Z,100.00
2022-09-06T06:23:51.851Z,100.00
2022-09-06T06:26:19.797Z,100.00
2022-09-06T06:28:47.540Z,100.00
2022-09-06T06:31:15.228Z,100.00
2022-09-06T06:33:44.586Z,100.00
2022-09-06T06:36:21.850Z,100.00
2022-09-06T06:38:51.425Z,100.00
2022-09-06T06:41:20.263Z,100.00
2022-09-06T06:43:48.065Z,100.00
2022-09-06T06:46:18.021Z,100.00
2022-09-06T06:48:50.460Z,100.00
2022-09-06T06:51:23.406Z,100.00
2022-09-06T06:53:51.622Z,100.00
2022-09-06T06:56:21.586Z,100.00
2022-09-06T06:58:51.098Z,100.00
2022-09-06T07:01:20.133Z,100.00
2022-09-06T07:03:49.755Z,100.00
2022-09-06T07:06:18.182Z,100.00
2022-09-06T07:08:46.333Z,100.00
2022-09-06T07:11:15.300Z,100.00
2022-09-06T07:13:43.023Z,100.00
2022-09-06T07:16:13.443Z,100.00
2022-09-06T07:18:42.190Z,100.00
2022-09-06T07:24:08.697Z,100.00
2022-09-06T07:26:38.500Z,99.17
2022-09-06T07:29:07.438Z,99.80
2022-09-06T07:34:25.247Z,100.00
2022-09-06T07:36:54.609Z,100.00
2022-09-06T07:39:22.362Z,100.00
2022-09-06T07:41:49.997Z,100.00
2022-09-06T07:44:17.714Z,99.19
2022-09-06T07:46:45.420Z,96.70
2022-09-06T07:49:13.116Z,96.28
2022-09-06T07:51:40.784Z,96.23
2022-09-06T07:54:29.925Z,95.79
2022-09-06T07:56:58.252Z,96.27
2022-09-06T07:59:27.443Z,94.49
2022-09-06T08:01:55.125Z,94.57
2022-09-06T08:04:22.776Z,93.94
2022-09-06T08:09:41.053Z,92.89
2022-09-06T08:12:09.524Z,93.58
2022-09-06T08:14:37.381Z,94.67
2022-09-06T08:17:05.079Z,92.93
2022-09-06T08:19:32.687Z,92.67
2022-09-06T08:22:00.328Z,92.47
2022-09-06T08:24:27.935Z,90.97
2022-09-06T08:26:56.972Z,89.76
2022-09-06T08:29:25.908Z,88.87
2022-09-06T08:31:53.631Z,85.16
2022-09-06T08:34:21.311Z,85.36
2022-09-06T08:36:48.933Z,86.42
2022-09-06T08:39:16.746Z,84.91
2022-09-06T08:41:49.401Z,83.25
2022-09-06T08:47:10.312Z,83.33
2022-09-06T08:49:39.895Z,81.70
2022-09-06T08:52:23.680Z,81.72
2022-09-06T08:54:56.710Z,81.73
2022-09-06T08:57:39.986Z,81.49
2022-09-06T09:00:12.361Z,81.39
2022-09-06T09:02:44.946Z,80.97
2022-09-06T09:05:22.155Z,80.52
2022-09-06T09:07:55.426Z,80.07
2022-09-06T09:10:25.710Z,79.62
2022-09-06T09:12:53.323Z,78.99
2022-09-06T09:15:22.498Z,78.78
2022-09-06T09:17:51.840Z,78.69
2022-09-06T09:20:20.194Z,78.74
2022-09-06T09:22:48.085Z,77.87
2022-09-06T09:25:20.215Z,77.41
2022-09-06T09:27:49.900Z,76.38
2022-09-06T09:33:22.321Z,76.68
2022-09-06T09:35:50.272Z,77.19
2022-09-06T09:38:21.915Z,77.23
2022-09-06T09:40:54.010Z,76.88
2022-09-06T09:43:23.411Z,76.71
2022-09-06T09:46:13.711Z,75.61
2022-09-06T09:48:46.394Z,75.58
2022-09-06T09:51:26.110Z,74.70
2022-09-06T09:53:56.358Z,75.56
2022-09-06T09:56:29.337Z,75.34
2022-09-06T09:58:58.026Z,73.94
2022-09-06T10:01:28.154Z,73.32
2022-09-06T10:09:37.465Z,72.78
2022-09-06T10:12:05.980Z,71.15
2022-09-06T10:14:42.743Z,71.79
2022-09-06T10:17:20.018Z,72.18
2022-09-06T10:19:49.160Z,72.44
2022-09-06T10:22:27.896Z,71.58
2022-09-06T10:25:10.092Z,71.16
2022-09-06T10:27:55.475Z,69.25
2022-09-06T10:30:31.233Z,70.01
2022-09-06T10:33:01.824Z,70.04
2022-09-06T10:35:32.132Z,69.78
2022-09-06T10:38:25.409Z,69.24
2022-09-06T10:41:00.108Z,69.83
2022-09-06T10:43:36.624Z,69.67
2022-09-06T10:46:09.126Z,67.63
2022-09-06T10:48:40.267Z,67.30
2022-09-06T10:51:18.668Z,67.20
2022-09-06T10:53:49.543Z,67.71
2022-09-06T10:56:30.901Z,66.62
2022-09-06T11:01:57.927Z,65.95
2022-09-06T11:04:30.733Z,65.98
2022-09-06T11:07:02.239Z,66.47
2022-09-06T11:09:35.159Z,64.78
2022-09-06T11:12:07.422Z,65.03
2022-09-06T11:14:35.377Z,65.15
2022-09-06T11:17:06.055Z,64.01
2022-09-06T11:19:37.716Z,64.00
2022-09-06T11:22:26.094Z,64.61
2022-09-06T11:25:18.074Z,64.24
2022-09-06T11:27:47.836Z,64.24
2022-09-06T11:30:16.926Z,64.09
2022-09-06T11:32:48.844Z,63.28
2022-09-06T11:35:24.123Z,62.47
2022-09-06T11:38:01.106Z,62.74
2022-09-06T11:40:30.442Z,63.04
2022-09-06T11:43:13.778Z,62.71
2022-09-06T11:45:44.675Z,62.50
2022-09-06T11:48:47.917Z,62.41
2022-09-06T11:51:33.424Z,61.70
2022-09-06T11:54:22.803Z,61.30
2022-09-06T11:56:56.197Z,60.77
2022-09-06T11:59:33.195Z,60.84
2022-09-06T12:02:02.501Z,60.85
2022-09-06T12:05:07.050Z,60.17
2022-09-06T12:07:36.400Z,60.66
2022-09-06T12:10:43.745Z,60.77
2022-09-06T12:13:42.314Z,59.79
2022-09-06T12:16:10.860Z,59.85
2022-09-06T12:18:59.144Z,58.54
2022-09-06T12:21:39.498Z,58.58
2022-09-06T12:24:08.207Z,58.87
2022-09-06T12:26:55.889Z,59.14
2022-09-06T12:29:26.274Z,57.88
2022-09-06T12:31:55.521Z,58.75
2022-09-06T12:34:24.663Z,58.88
2022-09-06T12:36:56.319Z,58.44
2022-09-06T12:39:24.358Z,58.35
2022-09-06T12:41:57.004Z,57.01
2022-09-06T12:44:30.238Z,56.86
2022-09-06T12:47:03.192Z,56.02
2022-09-06T12:49:30.861Z,56.97
2022-09-06T12:52:07.933Z,57.52
2022-09-06T12:54:44.306Z,57.36
2022-09-06T12:57:20.500Z,57.29
2022-09-06T12:59:49.945Z,57.52
2022-09-06T13:02:21.493Z,56.39
2022-09-06T13:04:53.106Z,56.11
2022-09-06T13:07:21.947Z,56.07
2022-09-06T13:09:52.039Z,55.84
2022-09-06T13:12:26.271Z,55.11
2022-09-06T13:14:54.923Z,54.42
2022-09-06T13:17:26.701Z,54.48
2022-09-06T13:19:54.432Z,53.71
2022-09-06T13:22:45.516Z,53.80
2022-09-06T13:25:20.857Z,54.37
2022-09-06T13:27:51.560Z,54.14
2022-09-06T13:30:37.712Z,54.08
2022-09-06T13:33:07.239Z,53.30
2022-09-06T13:35:37.687Z,53.43
2022-09-06T13:38:23.197Z,53.34
2022-09-06T13:43:47.765Z,52.68
2022-09-06T13:46:18.393Z,52.00
2022-09-06T13:48:46.347Z,52.18
2022-09-06T13:51:14.043Z,52.24
2022-09-06T13:53:41.960Z,51.49
2022-09-06T13:56:09.690Z,52.60
2022-09-06T13:58:37.738Z,52.48
2022-09-06T14:01:08.666Z,52.86
2022-09-06T14:03:37.049Z,52.73
2022-09-06T14:06:05.269Z,52.64
2022-09-06T14:08:49.591Z,52.73
2022-09-06T14:11:21.403Z,52.68
2022-09-06T14:13:49.667Z,51.47
2022-09-06T14:16:18.811Z,50.95
2022-09-06T14:18:46.638Z,49.89
2022-09-06T14:21:14.483Z,50.06
2022-09-06T14:23:42.478Z,49.60
2022-09-06T14:26:11.985Z,50.50
2022-09-06T14:28:39.628Z,50.58
2022-09-06T14:31:11.925Z,50.00
2022-09-06T14:33:41.068Z,49.87
2022-09-06T14:36:09.959Z,50.01
2022-09-06T14:38:39.033Z,50.18
2022-09-06T14:41:08.303Z,50.02
2022-09-06T14:43:36.741Z,49.38
2022-09-06T14:46:06.143Z,49.61
2022-09-06T14:48:34.216Z,50.45
2022-09-06T14:51:09.692Z,49.94
2022-09-06T14:53:41.007Z,49.31
2022-09-06T14:56:09.361Z,49.21
2022-09-06T14:58:38.622Z,50.42
2022-09-06T15:01:11.743Z,50.87
2022-09-06T15:03:40.606Z,50.28
2022-09-06T15:06:10.697Z,50.80
2022-09-06T15:08:38.831Z,51.87
2022-09-06T15:11:08.216Z,51.65
2022-09-06T15:13:37.285Z,51.91
2022-09-06T15:16:05.687Z,52.23
2022-09-06T15:18:33.679Z,51.80
2022-09-06T15:21:10.545Z,51.57
2022-09-06T15:23:39.197Z,52.27
2022-09-06T15:26:09.054Z,52.71
2022-09-06T15:28:37.007Z,52.87
2022-09-06T15:31:04.997Z,52.90
2022-09-06T15:33:33.821Z,53.20
2022-09-06T15:36:05.981Z,53.78
2022-09-06T15:38:36.497Z,55.95
2022-09-06T15:41:08.266Z,57.71
2022-09-06T15:43:36.927Z,56.04
2022-09-06T15:46:04.784Z,53.66
2022-09-06T15:48:41.483Z,55.41
2022-09-06T15:51:09.170Z,55.65
2022-09-06T15:53:38.423Z,55.41
2022-09-06T15:56:07.152Z,55.57
2022-09-06T15:58:35.029Z,55.35
2022-09-06T16:01:04.202Z,55.96
2022-09-06T16:03:32.207Z,56.64
2022-09-06T16:08:58.348Z,55.59
2022-09-06T16:11:26.301Z,55.51
2022-09-06T16:13:54.133Z,56.66
2022-09-06T16:16:22.639Z,57.85
2022-09-06T16:18:52.067Z,58.55
2022-09-06T16:21:21.583Z,58.58
2022-09-06T16:23:50.428Z,59.35
2022-09-06T16:26:21.772Z,59.85
2022-09-06T16:28:50.400Z,60.78
2022-09-06T16:31:18.902Z,61.11
2022-09-06T16:33:48.709Z,61.87
2022-09-06T16:36:16.503Z,70.02
2022-09-06T16:38:44.257Z,69.91
2022-09-06T16:41:14.414Z,82.03
2022-09-06T16:43:43.588Z,80.85
2022-09-06T16:46:11.973Z,84.99
2022-09-06T16:48:40.529Z,86.51
2022-09-06T16:51:13.094Z,90.44
2022-09-06T16:53:42.343Z,89.24
2022-09-06T16:56:10.697Z,86.48
2022-09-06T16:58:39.419Z,86.75
2022-09-06T17:01:09.490Z,90.21
2022-09-06T17:03:37.771Z,88.15
2022-09-06T17:06:05.886Z,91.34
2022-09-06T17:08:34.248Z,91.57
2022-09-06T17:11:02.653Z,88.07
2022-09-06T17:13:30.843Z,91.21
2022-09-06T17:16:20.000Z,90.32
2022-09-06T17:18:53.621Z,87.60
2022-09-06T17:21:22.145Z,89.48
2022-09-06T17:23:50.427Z,92.05
2022-09-06T17:26:18.538Z,93.00
2022-09-06T17:28:46.343Z,95.99
2022-09-06T17:31:14.565Z,95.43
2022-09-06T17:33:42.425Z,95.35
2022-09-06T17:36:13.139Z,93.50
2022-09-06T17:38:41.623Z,92.15
2022-09-06T17:41:09.852Z,91.63
2022-09-06T17:43:38.420Z,92.87
2022-09-06T17:46:06.487Z,97.50
2022-09-06T17:48:35.011Z,98.61
2022-09-06T17:51:06.890Z,98.50
2022-09-06T17:53:36.997Z,97.71
2022-09-06T17:56:05.422Z,91.67
2022-09-06T17:58:33.318Z,89.15
2022-09-06T18:01:03.397Z,88.33
2022-09-06T18:03:31.988Z,86.75
2022-09-06T18:06:04.349Z,85.59
2022-09-06T18:08:32.059Z,86.48
2022-09-06T18:11:07.969Z,89.08
2022-09-06T18:13:37.583Z,87.85
2022-09-06T18:16:07.668Z,86.65
2022-09-06T18:18:36.655Z,84.90
2022-09-06T18:21:07.490Z,84.98
2022-09-06T18:26:06.017Z,85.96
2022-09-06T18:28:34.785Z,87.56
2022-09-06T18:31:06.108Z,88.85
2022-09-06T18:36:09.259Z,92.12
2022-09-06T18:38:37.508Z,92.88
2022-09-06T18:41:09.000Z,93.18
2022-09-06T18:43:39.118Z,91.93
2022-09-06T18:46:09.775Z,92.69
2022-09-06T18:48:38.255Z,93.53
2022-09-06T18:51:06.790Z,93.69
2022-09-06T18:53:34.699Z,94.58
2022-09-06T18:56:02.984Z,96.46
2022-09-06T18:58:32.263Z,96.67
2022-09-06T19:01:03.304Z,96.39
2022-09-06T19:03:32.088Z,94.76
2022-09-06T19:06:03.214Z,94.55
2022-09-06T19:08:30.949Z,96.35
2022-09-06T19:11:03.258Z,95.51
2022-09-06T19:13:33.761Z,94.97
2022-09-06T19:16:02.024Z,92.90
2022-09-06T19:18:30.232Z,91.95
2022-09-06T19:21:00.936Z,90.66
2022-09-06T19:23:29.499Z,89.26
2022-09-06T19:25:58.449Z,89.18
2022-09-06T19:28:26.765Z,93.42
2022-09-06T19:30:56.443Z,96.93
2022-09-06T19:33:24.582Z,98.06
2022-09-06T19:36:10.474Z,97.92
2022-09-06T19:39:01.549Z,99.23
2022-09-06T19:41:27.617Z,96.88
2022-09-06T19:43:57.007Z,98.46
2022-09-06T19:46:26.775Z,99.05
2022-09-06T19:48:55.901Z,98.02
2022-09-06T19:51:24.153Z,97.24
2022-09-06T19:53:53.978Z,94.49
2022-09-06T19:56:23.298Z,94.51
2022-09-06T19:58:55.178Z,93.36
2022-09-06T20:01:23.388Z,92.41
2022-09-06T20:03:52.930Z,93.14
2022-09-06T20:06:22.360Z,94.24
2022-09-06T20:08:51.625Z,93.42
2022-09-06T20:11:20.741Z,93.21
2022-09-06T20:13:48.498Z,93.07
2022-09-06T20:16:17.968Z,94.61
2022-09-06T20:18:48.307Z,94.62
2022-09-06T20:21:18.489Z,93.29
2022-09-06T20:23:49.935Z,94.88
2022-09-06T20:26:18.090Z,95.07
2022-09-06T20:28:46.196Z,96.75
2022-09-06T20:31:16.032Z,97.10
2022-09-06T20:33:48.721Z,97.36
2022-09-06T20:36:19.315Z,97.51
2022-09-06T20:38:47.944Z,97.40
2022-09-06T20:41:17.422Z,98.67
2022-09-06T20:43:46.487Z,98.29
2022-09-06T20:46:16.194Z,97.80
2022-09-06T20:48:45.396Z,98.08
2022-09-06T20:51:15.446Z,96.76
2022-09-06T20:53:44.518Z,95.52
2022-09-06T20:56:13.968Z,95.73
2022-09-06T20:58:41.962Z,95.29
2022-09-06T21:01:11.519Z,96.16
2022-09-06T21:03:40.784Z,97.95
2022-09-06T21:06:09.926Z,98.20
2022-09-06T21:08:42.349Z,97.00
2022-09-06T21:11:12.009Z,96.79
2022-09-06T21:13:40.692Z,97.12
2022-09-06T21:16:08.757Z,96.53
2022-09-06T21:18:36.998Z,97.70
2022-09-06T21:21:05.901Z,99.64
2022-09-06T21:23:36.693Z,100.00
2022-09-06T21:26:06.273Z,98.75
2022-09-06T21:28:39.902Z,99.05
2022-09-06T21:31:09.009Z,98.22
2022-09-06T21:33:37.711Z,98.44
2022-09-06T21:36:07.585Z,98.17
2022-09-06T21:38:35.785Z,97.93
2022-09-06T21:41:03.957Z,96.82
2022-09-06T21:43:32.312Z,96.19
2022-09-06T21:46:03.445Z,96.48
2022-09-06T21:48:31.260Z,97.51
2022-09-06T21:50:59.139Z,98.24
2022-09-06T21:53:27.078Z,98.01
2022-09-06T21:56:00.395Z,98.23
2022-09-06T21:58:28.440Z,99.04
2022-09-06T22:00:58.531Z,99.72
2022-09-06T22:03:28.638Z,99.77
2022-09-06T22:05:56.646Z,100.00
2022-09-06T22:08:25.089Z,100.00
2022-09-06T22:10:53.115Z,100.00
2022-09-06T22:13:21.497Z,100.00
2022-09-06T22:15:49.302Z,100.00
2022-09-06T22:18:17.035Z,100.00
2022-09-06T22:20:46.144Z,100.00
2022-09-06T22:23:13.816Z,100.00
2022-09-06T22:25:41.981Z,100.00
2022-09-06T22:28:09.931Z,100.00
2022-09-06T22:30:37.606Z,100.00
2022-09-06T22:33:05.307Z,100.00
2022-09-06T22:35:33.026Z,100.00
2022-09-06T22:38:02.620Z,100.00
2022-09-06T22:40:30.309Z,100.00
2022-09-06T22:42:58.052Z,100.00
2022-09-06T22:45:25.823Z,100.00
2022-09-06T22:47:53.734Z,100.00
2022-09-06T22:50:21.438Z,100.00
2022-09-06T22:52:49.098Z,100.00
2022-09-06T22:55:18.387Z,100.00
2022-09-06T22:57:46.059Z,100.00
2022-09-06T23:00:15.022Z,100.00
2022-09-06T23:02:42.882Z,100.00
2022-09-06T23:05:10.629Z,100.00
2022-09-06T23:07:38.309Z,100.00
2022-09-06T23:10:07.255Z,100.00
2022-09-06T23:12:36.424Z,100.00
2022-09-06T23:15:04.343Z,100.00
2022-09-06T23:17:31.985Z,100.00
2022-09-06T23:19:59.645Z,100.00
2022-09-06T23:22:27.316Z,100.00
2022-09-06T23:24:55.050Z,100.00
2022-09-06T23:27:22.724Z,99.37
2022-09-06T23:29:51.995Z,100.00
2022-09-06T23:32:19.939Z,100.00
2022-09-06T23:34:47.674Z,100.00
2022-09-06T23:37:15.356Z,100.00
2022-09-06T23:39:43.072Z,100.00
2022-09-06T23:42:10.727Z,100.00
2022-09-06T23:44:38.393Z,100.00
2022-09-06T23:47:07.529Z,100.00
2022-09-06T23:49:35.223Z,100.00
2022-09-06T23:52:03.487Z,100.00
2022-09-06T23:54:31.159Z,100.00
2022-09-06T23:56:58.843Z,100.00
2022-09-06T23:59:26.529Z,100.00
